Time;durP1;ratioP1;P1;durP2;ratioP2;P2;SDS_P1;SDS_P2;PMS_P1;PMS_P2;Temp;Humidity;BMP_temperature;BMP_pressure;BME280_temperature;BME280_humidity;BME280_pressure;Samples;Min_cycle;Max_cycle;Signal;HPM_P1;HPM_P2
2023/10/05 00:09:47;;;;;;;10.25;6.50;;;10.40;99.90;;;;;;6134587;22;20046;-85
2023/10/05 00:16:46;;;;;;;10.50;6.70;;;10.40;99.90;;;;;;6250580;22;20470;-83
2023/10/05 00:19:46;;;;;;;8.90;5.85;;;10.40;99.90;;;;;;6231847;22;20019;-81
2023/10/05 00:37:15;;;;;;;;;;;;;;;;;;;;;
2023/10/05 00:40:43;;;;;;;7.68;5.13;;;10.10;99.90;;;;;;6123070;23;20553;-85
2023/10/05 00:44:31;;;;;;;8.75;5.40;;;10.20;99.90;;;;;;6068818;23;20208;-83
2023/10/05 00:48:02;;;;;;;;;;;;;;;;;;;;;
2023/10/05 00:51:12;;;;;;;12.27;5.28;;;10.10;99.90;;;;;;5994589;23;20031;-85
2023/10/05 00:54:30;;;;;;;11.50;5.00;;;10.10;99.90;;;;;;6010047;23;20027;-84
2023/10/05 00:57:48;;;;;;;8.38;5.45;;;10.00;99.90;;;;;;6027000;23;20023;-84
2023/10/05 01:00:43;;;;;;;10.95;5.03;;;10.00;99.90;;;;;;6033086;23;20028;-84
2023/10/05 01:03:47;;;;;;;8.60;4.90;;;10.00;99.90;;;;;;6122905;23;20040;-84
2023/10/05 01:07:27;;;;;;;;;;;;;;;;;;;;;
2023/10/05 01:28:21;;;;;;;9.52;4.93;;;9.70;99.90;;;;;;6046686;23;20149;-85
2023/10/05 01:34:35;;;;;;;7.95;5.05;;;9.70;99.90;;;;;;6084798;23;20026;-85
2023/10/05 01:41:56;;;;;;;7.65;4.30;;;9.60;99.90;;;;;;6082382;23;20021;-84
2023/10/05 01:45:15;;;;;;;9.90;5.05;;;9.70;99.90;;;;;;6153671;23;20044;-85
2023/10/05 01:56:07;;;;;;;8.07;4.30;;;9.50;99.90;;;;;;6002316;23;20507;-87
2023/10/05 01:58:59;;;;;;;10.10;4.85;;;9.60;99.90;;;;;;6220463;22;20024;-85
2023/10/05 02:06:20;;;;;;;9.38;4.82;;;9.40;99.90;;;;;;6035936;23;20045;-86
2023/10/05 02:09:56;;;;;;;11.93;4.22;;;9.50;99.90;;;;;;6045609;23;20392;-85
2023/10/05 02:19:38;;;;;;;8.23;4.78;;;9.40;99.90;;;;;;5970134;23;20171;-85
2023/10/05 02:43:07;;;;;;;8.65;4.60;;;9.50;99.90;;;;;;6140237;23;20112;-84
2023/10/05 02:49:59;;;;;;;9.82;5.28;;;9.20;99.90;;;;;;5968761;23;20099;-85
2023/10/05 02:59:14;;;;;;;9.35;4.90;;;9.30;99.90;;;;;;6090036;23;20026;-85
2023/10/05 03:02:20;;;;;;;9.15;5.00;;;9.40;99.90;;;;;;6092165;23;20018;-85
2023/10/05 03:05:44;;;;;;;8.25;4.78;;;9.30;99.90;;;;;;6064147;23;20044;-86
2023/10/05 03:08:36;;;;;;;9.77;5.13;;;9.30;99.90;;;;;;6071183;23;20082;-84
2023/10/05 03:11:46;;;;;;;12.05;5.80;;;9.30;99.90;;;;;;6092706;23;20050;-85
2023/10/05 03:14:43;;;;;;;9.03;5.10;;;9.40;99.90;;;;;;6054196;23;20069;-86
2023/10/05 03:17:36;;;;;;;10.95;5.28;;;9.30;99.90;;;;;;6055697;23;20320;-83
2023/10/05 03:31:12;;;;;;;9.77;4.63;;;9.10;99.90;;;;;;6100259;23;20509;-83
2023/10/05 03:34:53;;;;;;;9.23;5.68;;;9.00;99.90;;;;;;6014464;23;20055;-84
2023/10/05 03:38:19;;;;;;;;;;;;;;;;;;;;;
2023/10/05 03:48:52;;;;;;;10.82;4.85;;;9.10;99.90;;;;;;5883885;24;20028;-84
2023/10/05 04:33:31;;;;;;;13.68;6.18;;;9.20;99.90;;;;;;6074048;23;20032;-85
2023/10/05 04:40:38;;;;;;;9.33;5.80;;;9.10;99.90;;;;;;5945629;23;20482;-85
2023/10/05 04:43:59;;;;;;;9.32;5.30;;;9.10;99.90;;;;;;5943395;24;20049;-83
2023/10/05 04:50:19;;;;;;;11.48;5.95;;;9.10;99.90;;;;;;6068313;22;20027;-76
2023/10/05 04:52:50;;;;;;;10.90;6.13;;;9.20;99.90;;;;;;6285595;22;20019;-75
2023/10/05 04:55:22;;;;;;;18.40;6.13;;;9.10;99.90;;;;;;6281150;22;20034;-76
2023/10/05 04:57:55;;;;;;;22.77;6.07;;;9.00;99.90;;;;;;6282119;22;20012;-77
2023/10/05 05:03:33;;;;;;;16.25;8.63;;;9.00;99.90;;;;;;6274045;22;20443;-74
2023/10/05 05:06:10;;;;;;;15.75;7.20;;;9.00;99.90;;;;;;6274876;22;20019;-74
2023/10/05 05:08:39;;;;;;;9.02;5.78;;;9.00;99.90;;;;;;6274697;22;20047;-75
2023/10/05 05:11:11;;;;;;;12.82;6.60;;;9.10;99.90;;;;;;6277190;22;20023;-74
2023/10/05 05:13:39;;;;;;;14.55;6.85;;;9.30;99.90;;;;;;6279265;22;20024;-75
2023/10/05 05:16:07;;;;;;;17.27;7.18;;;9.30;99.90;;;;;;6280934;22;20022;-75
2023/10/05 05:18:38;;;;;;;21.25;6.90;;;9.30;99.90;;;;;;6269722;22;20020;-76
2023/10/05 05:21:07;;;;;;;22.63;7.97;;;9.30;99.90;;;;;;6273109;22;20061;-77
2023/10/05 05:23:35;;;;;;;21.90;7.57;;;9.30;99.90;;;;;;6274927;22;20043;-76
2023/10/05 05:26:03;;;;;;;13.68;7.78;;;9.30;99.90;;;;;;6277831;22;20015;-75
2023/10/05 05:28:31;;;;;;;14.02;6.90;;;9.30;99.90;;;;;;6282881;22;20075;-76
2023/10/05 05:31:14;;;;;;;15.05;6.70;;;9.30;99.90;;;;;;6271474;22;20103;-77
2023/10/05 05:33:44;;;;;;;16.48;7.25;;;9.30;99.90;;;;;;6270385;22;20031;-74
2023/10/05 05:36:13;;;;;;;14.60;7.13;;;9.20;99.90;;;;;;6272300;22;20030;-74
2023/10/05 05:38:40;;;;;;;13.38;6.90;;;9.20;99.90;;;;;;6273963;22;20673;-76
2023/10/05 05:41:12;;;;;;;17.08;6.55;;;9.20;99.90;;;;;;6268930;22;20453;-76
2023/10/05 05:43:40;;;;;;;16.73;6.38;;;9.30;99.90;;;;;;6280542;22;20020;-74
2023/10/05 05:46:12;;;;;;;11.40;6.05;;;9.30;99.90;;;;;;6281680;22;20035;-77
2023/10/05 05:48:48;;;;;;;14.68;6.50;;;9.40;99.90;;;;;;6270539;22;20069;-77
2023/10/05 05:51:15;;;;;;;23.50;12.65;;;9.40;99.90;;;;;;6271280;22;20407;-76
2023/10/05 05:53:44;;;;;;;14.07;6.18;;;9.50;99.90;;;;;;6276987;22;20092;-77
2023/10/05 05:56:16;;;;;;;13.48;7.47;;;9.70;99.90;;;;;;6277456;22;20019;-76
2023/10/05 05:58:47;;;;;;;20.90;6.72;;;9.80;99.90;;;;;;6279435;22;20032;-79
2023/10/05 06:01:19;;;;;;;16.42;7.43;;;10.00;99.90;;;;;;6270420;22;20049;-77
2023/10/05 06:03:48;;;;;;;15.20;7.25;;;10.00;99.90;;;;;;6269470;22;20142;-74
2023/10/05 06:06:16;;;;;;;24.25;8.45;;;10.10;99.90;;;;;;6274585;22;20023;-76
2023/10/05 06:08:44;;;;;;;14.30;7.60;;;10.20;99.90;;;;;;6270842;22;20030;-75
2023/10/05 06:11:12;;;;;;;14.45;6.80;;;10.40;99.90;;;;;;6279735;22;20090;-76
2023/10/05 06:13:40;;;;;;;18.83;7.38;;;10.50;99.90;;;;;;6272086;22;20022;-74
2023/10/05 06:16:09;;;;;;;16.70;6.95;;;10.60;99.90;;;;;;6284737;22;20026;-76
2023/10/05 06:18:37;;;;;;;16.75;6.35;;;10.70;99.90;;;;;;6272408;22;20020;-77
2023/10/05 06:21:06;;;;;;;12.57;6.72;;;10.90;99.90;;;;;;6269495;22;20081;-77
2023/10/05 06:23:35;;;;;;;11.77;6.20;;;11.00;99.90;;;;;;6278092;22;20047;-78
2023/10/05 06:26:03;;;;;;;13.10;7.38;;;11.20;99.90;;;;;;6278638;22;20081;-77
2023/10/05 06:28:32;;;;;;;13.98;6.65;;;11.40;99.90;;;;;;6268716;22;20026;-78
2023/10/05 06:31:01;;;;;;;18.38;9.23;;;11.60;99.90;;;;;;6283055;22;20019;-77
2023/10/05 06:33:28;;;;;;;14.35;6.20;;;11.80;99.90;;;;;;6270168;22;20032;-78
2023/10/05 06:35:55;;;;;;;12.10;6.00;;;11.90;99.90;;;;;;6272247;22;20121;-76
2023/10/05 06:38:24;;;;;;;15.40;6.60;;;12.20;99.90;;;;;;6277521;22;20023;-75
2023/10/05 06:41:11;;;;;;;17.60;7.00;;;12.20;99.90;;;;;;6285289;22;20379;-76
2023/10/05 06:43:39;;;;;;;13.77;7.28;;;12.40;99.90;;;;;;6281085;22;20023;-75
2023/10/05 06:46:14;;;;;;;16.90;7.47;;;12.50;99.90;;;;;;6280424;22;20020;-75
2023/10/05 06:48:42;;;;;;;11.75;6.20;;;12.50;99.90;;;;;;6270973;22;20477;-76
2023/10/05 06:51:11;;;;;;;13.27;8.52;;;12.70;99.90;;;;;;6269108;22;20407;-75
2023/10/05 06:53:40;;;;;;;18.90;7.20;;;12.90;99.90;;;;;;6276642;22;20520;-76
2023/10/05 06:56:08;;;;;;;15.25;6.35;;;13.00;99.90;;;;;;6278313;22;20027;-79
2023/10/05 06:58:35;;;;;;;17.10;6.95;;;13.20;99.90;;;;;;6282276;22;20012;-75
2023/10/05 07:01:03;;;;;;;17.23;6.88;;;13.20;99.90;;;;;;6283917;22;20019;-73
2023/10/05 07:03:31;;;;;;;17.25;7.25;;;13.30;99.90;;;;;;6275257;22;20046;-75
2023/10/05 07:05:58;;;;;;;16.35;8.90;;;13.50;99.90;;;;;;6276206;22;20106;-76
2023/10/05 07:08:25;;;;;;;14.85;6.13;;;13.60;99.90;;;;;;6277476;22;20042;-76
2023/10/05 07:10:54;;;;;;;18.45;9.35;;;13.60;99.90;;;;;;6278990;22;20023;-77
2023/10/05 07:13:23;;;;;;;19.25;9.35;;;13.60;99.90;;;;;;6283178;22;20034;-75
2023/10/05 07:15:50;;;;;;;11.88;7.72;;;13.70;99.90;;;;;;6280598;22;20436;-75
2023/10/05 07:18:19;;;;;;;14.15;6.43;;;13.70;99.90;;;;;;6275510;22;20076;-75
2023/10/05 07:20:46;;;;;;;16.27;6.68;;;13.70;99.90;;;;;;6274569;22;20344;-77
2023/10/05 07:23:14;;;;;;;14.95;5.47;;;13.70;99.90;;;;;;6281510;22;20023;-75
2023/10/05 07:25:41;;;;;;;11.00;6.07;;;13.80;99.90;;;;;;6280263;22;20087;-75
2023/10/05 07:28:14;;;;;;;12.90;6.05;;;14.00;99.90;;;;;;6286669;22;20015;-75
2023/10/05 07:30:42;;;;;;;13.25;5.68;;;14.20;99.90;;;;;;6272256;22;20325;-76
2023/10/05 07:33:12;;;;;;;16.00;5.40;;;14.20;99.90;;;;;;6272874;22;20459;-77
2023/10/05 07:35:53;;;;;;;12.63;4.90;;;14.30;99.90;;;;;;6279210;22;20098;-75
2023/10/05 07:42:08;;;;;;;11.38;5.25;;;14.50;99.90;;;;;;6209881;22;20043;-73
2023/10/05 07:45:23;;;;;;;17.73;5.85;;;14.60;99.90;;;;;;6159434;22;20021;-77
2023/10/05 07:48:37;;;;;;;14.10;6.70;;;14.70;99.90;;;;;;6285967;22;20518;-77
2023/10/05 07:57:12;;;;;;;11.50;5.40;;;14.90;99.90;;;;;;6253134;22;20087;-76
2023/10/05 07:59:59;;;;;;;9.80;5.07;;;15.10;99.90;;;;;;6231639;22;20015;-77
2023/10/05 08:02:31;;;;;;;12.70;5.18;;;15.00;99.90;;;;;;6265712;22;20004;-76
2023/10/05 08:05:19;;;;;;;17.67;7.75;;;15.20;99.90;;;;;;6271431;22;20004;-73
2023/10/05 08:15:47;;;;;;;14.50;5.88;;;15.80;99.90;;;;;;6257019;22;20030;-77
2023/10/05 08:22:46;;;;;;;10.73;6.18;;;16.50;99.90;;;;;;6209411;23;20069;-80
2023/10/05 08:25:38;;;;;;;11.20;8.18;;;16.70;99.90;;;;;;6227818;22;20024;-76
2023/10/05 08:36:19;;;;;;;20.60;7.80;;;17.00;99.90;;;;;;6205115;22;20105;-77
2023/10/05 08:54:45;;;;;;;14.38;8.07;;;17.60;99.90;;;;;;5932344;23;20400;-75
2023/10/05 09:00:51;;;;;;;20.77;10.35;;;18.70;99.90;;;;;;6029196;23;20030;-76
2023/10/05 09:04:01;;;;;;;21.25;9.07;;;19.00;99.90;;;;;;6032173;23;20047;-77
2023/10/05 09:07:21;;;;;;;;;;;;;;;;;;;;;
2023/10/05 09:13:51;;;;;;;18.08;7.53;;;19.80;99.90;;;;;;6037585;23;20027;-79
2023/10/05 09:16:30;;;;;;;16.13;9.45;;;20.10;99.90;;;;;;6141142;23;20025;-78
2023/10/05 09:19:00;;;;;;;12.40;7.55;;;20.20;99.90;;;;;;6130968;23;20036;-75
2023/10/05 09:21:50;;;;;;;12.68;6.82;;;20.10;99.90;;;;;;6136860;23;20037;-74
2023/10/05 09:24:33;;;;;;;9.80;6.35;;;20.00;99.90;;;;;;6268059;22;20026;-76
2023/10/05 09:27:50;;;;;;;11.95;6.57;;;19.80;99.90;;;;;;6264627;22;20019;-76
2023/10/05 09:33:59;;;;;;;12.60;6.95;;;19.50;99.90;;;;;;6245080;22;20045;-75
2023/10/05 09:37:13;;;;;;;18.10;5.73;;;19.40;99.90;;;;;;6270083;22;20019;-75
2023/10/05 09:40:48;;;;;;;10.20;5.30;;;19.20;99.90;;;;;;6250938;22;20023;-78
2023/10/05 09:43:34;;;;;;;18.67;5.30;;;19.00;99.90;;;;;;6275936;22;20053;-76
2023/10/05 10:13:44;;;;;;;13.73;7.53;;;19.80;99.90;;;;;;6085206;23;20469;-77
2023/10/05 10:37:53;;;;;;;;;;;;;;;;;;;;;
2023/10/05 11:32:34;;;;;;;;;;;;;;;;;;;;;
2023/10/05 12:46:10;;;;;;;25.70;12.65;;;23.10;99.90;;;;;;4763358;30;20472;-80
2023/10/05 12:54:03;;;;;;;21.27;11.45;;;23.00;99.90;;;;;;4770254;29;20082;-80
2023/10/05 13:41:34;;;;;;;;;;;;;;;;;;;;;
2023/10/05 13:50:53;;;;;;;20.60;9.98;;;21.50;99.90;;;;;;6090494;23;20076;-79
2023/10/05 13:54:15;;;;;;;19.00;9.82;;;21.60;99.90;;;;;;6177315;23;20085;-76
2023/10/05 13:57:21;;;;;;;26.63;13.93;;;21.60;99.90;;;;;;6113475;23;20030;-77
2023/10/05 14:00:17;;;;;;;19.25;9.18;;;21.60;99.90;;;;;;6124078;23;20036;-79
2023/10/05 14:03:32;;;;;;;15.57;7.75;;;21.60;99.90;;;;;;6166408;23;20028;-81
2023/10/05 14:09:57;;;;;;;17.00;10.10;;;21.70;99.90;;;;;;6137936;23;20028;-76
2023/10/05 14:13:34;;;;;;;25.75;13.82;;;21.60;99.90;;;;;;6194246;23;20112;-76
2023/10/05 14:16:58;;;;;;;;;;;;;;;;;;;;;
2023/10/05 14:27:44;;;;;;;11.18;4.18;;;21.70;99.90;;;;;;6249830;22;20597;-76
2023/10/05 15:54:23;;;;;;;7.35;4.18;;;19.60;99.90;;;;;;6031171;22;5646868;-83
2023/10/05 16:05:01;;;;;;;8.15;4.53;;;19.10;99.90;;;;;;5986740;23;20027;-82
2023/10/05 16:15:58;;;;;;;7.07;3.72;;;18.60;99.90;;;;;;5987976;23;20822;-82
2023/10/05 16:48:57;;;;;;;27.88;15.27;;;17.40;99.90;;;;;;6208746;22;20016;-85
2023/10/05 16:52:24;;;;;;;31.40;17.25;;;17.40;99.90;;;;;;6126937;23;20018;-80
2023/10/05 18:51:44;;;;;;;83.82;50.28;;;14.10;99.90;;;;;;5956808;24;20032;-79
2023/10/05 18:54:17;;;;;;;75.32;47.63;;;14.00;99.90;;;;;;5953363;24;20103;-82
2023/10/05 19:03:34;;;;;;;;;;;;;;;;;;;;;
2023/10/05 19:06:08;;;;;;;56.63;38.58;;;13.80;99.90;;;;;;6235715;22;20020;-82
2023/10/05 19:09:02;;;;;;;57.10;34.70;;;13.70;99.90;;;;;;6240371;22;20032;-81
2023/10/05 19:47:00;;;;;;;32.22;22.02;;;13.20;99.90;;;;;;6021456;23;20023;-79
2023/10/05 19:49:28;;;;;;;32.22;19.45;;;13.10;99.90;;;;;;6060644;23;20063;-82
2023/10/05 19:52:09;;;;;;;37.03;21.02;;;13.10;99.90;;;;;;6072143;23;20049;-80
2023/10/05 19:54:37;;;;;;;40.92;24.13;;;13.00;99.90;;;;;;6059771;23;20086;-79
2023/10/05 19:57:27;;;;;;;35.92;22.98;;;13.10;99.90;;;;;;6063023;23;20221;-82
2023/10/05 19:59:56;;;;;;;39.00;22.42;;;13.00;99.90;;;;;;6062131;23;20030;-79
2023/10/05 20:02:24;;;;;;;32.70;21.40;;;12.90;99.90;;;;;;6085145;23;20642;-80
2023/10/05 20:04:54;;;;;;;31.73;21.20;;;12.90;99.90;;;;;;6144868;23;20072;-81
2023/10/05 20:07:25;;;;;;;42.70;25.85;;;12.70;99.90;;;;;;6152075;23;20319;-81
2023/10/05 20:09:52;;;;;;;30.75;17.95;;;12.70;99.90;;;;;;6173175;22;20019;-79
2023/10/05 20:12:19;;;;;;;32.78;18.58;;;12.60;99.90;;;;;;6243051;22;20058;-78
2023/10/05 20:14:47;;;;;;;35.38;19.90;;;12.60;99.90;;;;;;6273242;22;20027;-75
2023/10/05 20:17:14;;;;;;;32.63;20.77;;;12.90;99.90;;;;;;6275819;22;20024;-77
2023/10/05 20:19:43;;;;;;;51.38;34.85;;;12.80;99.90;;;;;;6278133;22;20020;-79
2023/10/05 20:22:11;;;;;;;87.05;60.13;;;12.70;99.90;;;;;;6280597;22;20015;-78
2023/10/05 20:24:38;;;;;;;33.75;23.30;;;12.80;99.90;;;;;;6270232;22;20056;-79
2023/10/05 20:27:08;;;;;;;26.13;16.65;;;12.70;99.90;;;;;;6272479;22;20111;-77
2023/10/05 20:29:35;;;;;;;26.05;16.45;;;12.70;99.90;;;;;;6273819;22;20713;-78
2023/10/05 20:32:02;;;;;;;25.38;14.93;;;12.70;99.90;;;;;;6276463;22;20039;-78
2023/10/05 20:34:30;;;;;;;26.33;16.70;;;12.70;99.90;;;;;;6278885;22;20039;-78
2023/10/05 20:36:59;;;;;;;28.83;17.30;;;12.60;99.90;;;;;;6280292;22;20443;-77
2023/10/05 20:39:26;;;;;;;23.35;14.82;;;12.60;99.90;;;;;;6274500;22;20634;-77
2023/10/05 20:41:54;;;;;;;26.40;16.33;;;12.50;99.90;;;;;;6276851;22;20073;-77
2023/10/05 20:44:21;;;;;;;28.90;15.75;;;12.40;99.90;;;;;;6275551;22;20034;-77
2023/10/05 20:46:48;;;;;;;26.65;15.32;;;12.40;99.90;;;;;;6278719;22;20035;-78
2023/10/05 20:49:16;;;;;;;25.05;13.68;;;12.30;99.90;;;;;;6280623;22;20336;-78
2023/10/05 20:51:44;;;;;;;24.13;14.18;;;12.30;99.90;;;;;;6269673;22;20028;-77
2023/10/05 20:54:13;;;;;;;25.13;15.02;;;12.30;99.90;;;;;;6272023;22;20024;-76
2023/10/05 20:56:40;;;;;;;23.27;15.52;;;12.30;99.90;;;;;;6273595;22;20038;-79
2023/10/05 20:59:08;;;;;;;24.83;16.85;;;12.30;99.90;;;;;;6276107;22;20057;-78
2023/10/05 21:01:35;;;;;;;29.88;17.55;;;12.30;99.90;;;;;;6278779;22;20234;-78
2023/10/05 21:04:02;;;;;;;27.83;17.70;;;12.30;99.90;;;;;;6280365;22;20016;-78
2023/10/05 21:06:30;;;;;;;25.67;15.95;;;12.30;99.90;;;;;;6270501;22;20326;-78
2023/10/05 21:09:04;;;;;;;25.35;15.63;;;12.40;99.90;;;;;;6272751;22;20095;-75
2023/10/05 21:11:33;;;;;;;26.77;16.30;;;12.30;99.90;;;;;;6242967;22;20048;-77
2023/10/05 21:14:00;;;;;;;23.25;15.18;;;12.30;99.90;;;;;;6278414;22;20024;-76
2023/10/05 21:16:28;;;;;;;25.38;16.63;;;12.20;99.90;;;;;;6243905;22;20043;-78
2023/10/05 21:18:55;;;;;;;26.88;16.27;;;12.10;99.90;;;;;;6279852;22;20015;-78
2023/10/05 21:21:24;;;;;;;23.25;15.25;;;12.20;99.90;;;;;;6241342;22;20054;-79
2023/10/05 21:23:52;;;;;;;23.83;16.48;;;12.10;99.90;;;;;;6241977;22;20375;-77
2023/10/05 21:26:19;;;;;;;23.45;16.42;;;11.90;99.90;;;;;;6275728;22;20452;-77
2023/10/05 21:28:48;;;;;;;26.98;15.68;;;11.90;99.90;;;;;;6277035;22;20626;-76
2023/10/05 21:31:15;;;;;;;21.77;14.20;;;11.90;99.90;;;;;;6280813;22;20034;-79
2023/10/05 21:33:43;;;;;;;25.27;14.88;;;11.90;99.90;;;;;;6269607;22;20024;-77
2023/10/05 21:36:10;;;;;;;23.85;15.20;;;11.90;99.90;;;;;;6271669;22;20023;-77
2023/10/05 21:38:37;;;;;;;23.73;14.73;;;12.00;99.90;;;;;;6241360;22;20024;-77
2023/10/05 21:41:04;;;;;;;23.55;14.20;;;12.00;99.90;;;;;;6275853;22;20027;-79
2023/10/05 21:43:32;;;;;;;22.95;14.95;;;11.90;99.90;;;;;;6278618;22;20024;-77
2023/10/05 21:46:01;;;;;;;25.40;15.02;;;11.80;99.90;;;;;;6280028;22;20022;-78
2023/10/05 21:48:29;;;;;;;24.25;14.88;;;11.70;99.90;;;;;;6269717;22;20074;-78
2023/10/05 21:50:56;;;;;;;23.55;14.82;;;11.80;99.90;;;;;;6272088;22;20023;-79
2023/10/05 21:53:23;;;;;;;25.13;14.27;;;11.70;99.90;;;;;;6241720;22;20086;-77
2023/10/05 21:55:50;;;;;;;20.70;13.95;;;11.60;99.90;;;;;;6277545;22;20031;-78
2023/10/05 21:58:18;;;;;;;24.33;14.85;;;11.50;99.90;;;;;;6279392;22;20042;-76
2023/10/05 22:00:54;;;;;;;20.92;13.95;;;11.50;99.90;;;;;;6269367;22;20023;-77
2023/10/05 22:03:22;;;;;;;;;;;11.60;99.90;;;;;;6242007;22;20098;-78
2023/10/05 22:05:49;;;;;;;25.55;14.73;;;11.60;99.90;;;;;;6242004;22;20382;-77
2023/10/05 22:08:18;;;;;;;25.58;14.88;;;11.70;99.90;;;;;;6275076;22;20044;-76
2023/10/05 22:10:46;;;;;;;26.50;15.95;;;11.70;99.90;;;;;;6280116;22;20028;-76
2023/10/05 22:13:14;;;;;;;25.83;17.10;;;11.70;99.90;;;;;;6281817;22;20011;-77
2023/10/05 22:15:42;;;;;;;23.38;16.00;;;11.50;99.90;;;;;;6293031;22;20012;-76
2023/10/05 22:18:11;;;;;;;29.33;17.52;;;11.50;99.90;;;;;;6302305;22;20023;-77
2023/10/05 22:20:40;;;;;;;26.25;16.70;;;11.40;99.90;;;;;;6297462;22;20024;-77
2023/10/05 22:23:11;;;;;;;27.95;16.88;;;11.40;99.90;;;;;;6293240;22;20028;-77
2023/10/05 22:25:39;;;;;;;25.02;14.30;;;11.50;99.90;;;;;;6283417;22;20498;-78
2023/10/05 22:28:08;;;;;;;22.92;14.38;;;11.60;99.90;;;;;;6249749;22;20028;-77
2023/10/05 22:30:37;;;;;;;23.65;14.23;;;11.60;99.90;;;;;;6247746;22;20329;-78
2023/10/05 22:33:05;;;;;;;21.30;14.98;;;11.60;99.90;;;;;;6276323;22;20111;-77
2023/10/05 22:35:33;;;;;;;26.88;15.65;;;11.70;99.90;;;;;;6277705;22;20102;-77
2023/10/05 22:38:03;;;;;;;23.80;16.42;;;11.60;99.90;;;;;;6282621;22;20047;-77
2023/10/05 22:40:30;;;;;;;26.98;16.33;;;11.50;99.90;;;;;;6281818;22;20501;-78
2023/10/05 22:42:57;;;;;;;30.67;18.65;;;11.50;99.90;;;;;;6287567;22;20016;-78
2023/10/05 22:45:25;;;;;;;31.27;18.98;;;11.50;99.90;;;;;;6280214;22;20463;-79
2023/10/05 22:47:54;;;;;;;29.45;17.17;;;11.50;99.90;;;;;;6282402;22;20027;-86
2023/10/05 22:50:48;;;;;;;29.23;16.73;;;11.50;99.90;;;;;;6246808;22;20481;-85
2023/10/05 22:53:34;;;;;;;25.90;15.80;;;11.50;99.90;;;;;;6239790;22;20023;-81
2023/10/05 22:56:09;;;;;;;27.88;15.80;;;11.50;99.90;;;;;;6174196;23;20031;-82
2023/10/05 22:58:37;;;;;;;21.13;12.40;;;11.60;99.90;;;;;;6192965;23;20084;-84
2023/10/05 23:01:13;;;;;;;20.00;13.38;;;11.60;99.90;;;;;;6183704;23;20242;-88
2023/10/05 23:03:45;;;;;;;21.67;13.32;;;11.70;99.90;;;;;;6185260;23;20048;-79
2023/10/05 23:06:13;;;;;;;16.67;10.95;;;11.60;99.90;;;;;;6172228;23;20477;-83
2023/10/05 23:08:47;;;;;;;20.77;12.80;;;11.60;99.90;;;;;;6205337;23;20377;-85
2023/10/05 23:11:14;;;;;;;19.42;13.07;;;11.60;99.90;;;;;;6167116;23;20074;-82
2023/10/05 23:13:44;;;;;;;18.02;11.80;;;11.60;99.90;;;;;;6184525;23;20024;-82
2023/10/05 23:16:18;;;;;;;20.80;12.95;;;11.60;99.90;;;;;;6212135;23;20016;-83
2023/10/05 23:18:58;;;;;;;19.83;13.45;;;11.60;99.90;;;;;;6172454;23;20020;-83
2023/10/05 23:21:40;;;;;;;22.67;14.70;;;11.60;99.90;;;;;;6185610;23;20024;-83
2023/10/05 23:24:55;;;;;;;20.60;14.23;;;11.40;99.90;;;;;;6215215;23;20028;-83
2023/10/05 23:31:24;;;;;;;16.95;11.40;;;11.20;99.90;;;;;;6111733;23;20022;-83
2023/10/05 23:34:12;;;;;;;17.77;12.27;;;11.10;99.90;;;;;;6089494;23;20030;-82
2023/10/05 23:36:51;;;;;;;14.65;11.20;;;11.10;99.90;;;;;;6120396;23;20045;-83
2023/10/05 23:39:43;;;;;;;17.30;10.88;;;11.20;99.90;;;;;;6102663;23;20025;-84
2023/10/05 23:42:40;;;;;;;18.73;10.07;;;11.40;99.90;;;;;;6106376;23;20414;-83
2023/10/05 23:45:45;;;;;;;14.68;9.90;;;11.40;99.90;;;;;;6119506;23;20026;-83
2023/10/05 23:48:15;;;;;;;15.02;10.43;;;11.40;99.90;;;;;;6119392;23;20022;-83
2023/10/05 23:50:46;;;;;;;19.35;10.98;;;11.30;99.90;;;;;;6119867;23;20162;-83
2023/10/05 23:53:29;;;;;;;18.20;10.13;;;11.40;99.90;;;;;;6125111;23;20030;-81
2023/10/05 23:56:09;;;;;;;18.73;10.50;;;11.50;99.90;;;;;;6123667;23;20022;-82
2023/10/05 23:58:39;;;;;;;16.73;10.40;;;11.50;99.90;;;;;;6164769;23;20023;-82
